createdAt,value
2018-12-01T00:04:59.414Z,33.70
2018-12-01T00:10:01.771Z,37.13
2018-12-01T00:15:05.437Z,34.63
2018-12-01T00:20:11.848Z,36.20
2018-12-01T00:25:13.907Z,36.67
2018-12-01T00:30:17.606Z,37.37
2018-12-01T00:35:19.961Z,35.77
2018-12-01T00:40:22.135Z,37.90
2018-12-01T00:45:24.150Z,34.13
2018-12-01T00:50:26.189Z,37.23
2018-12-01T00:55:28.293Z,36.20
2018-12-01T01:00:30.386Z,35.63
2018-12-01T01:05:32.410Z,35.87
2018-12-01T01:10:34.781Z,33.87
2018-12-01T01:15:36.722Z,34.27
2018-12-01T01:20:38.764Z,33.37
2018-12-01T01:31:16.470Z,33.47
2018-12-01T01:36:18.537Z,33.77
2018-12-01T01:41:20.587Z,32.77
2018-12-01T01:46:22.598Z,34.20
2018-12-01T01:51:24.649Z,32.70
2018-12-01T01:56:26.777Z,33.57
2018-12-01T02:01:28.830Z,33.20
2018-12-01T02:06:30.866Z,32.37
2018-12-01T02:11:32.933Z,31.50
2018-12-01T02:16:34.957Z,32.40
2018-12-01T02:21:36.982Z,33.40
2018-12-01T02:26:39.063Z,34.37
2018-12-01T02:31:41.171Z,33.57
2018-12-01T02:36:43.231Z,32.27
2018-12-01T02:41:45.300Z,32.87
2018-12-01T02:46:58.952Z,35.63
2018-12-01T02:52:01.062Z,34.63
2018-12-01T02:57:10.197Z,33.63
2018-12-01T03:02:12.295Z,30.60
2018-12-01T03:07:14.538Z,32.70
2018-12-01T03:12:16.575Z,31.33
2018-12-01T03:17:18.639Z,34.00
2018-12-01T03:22:21.078Z,31.90
2018-12-01T03:27:23.125Z,36.13
2018-12-01T03:32:25.272Z,34.50
2018-12-01T03:37:27.316Z,33.07
2018-12-01T03:42:29.662Z,32.33
2018-12-01T03:47:32.559Z,31.20
2018-12-01T03:52:34.634Z,33.20
2018-12-01T03:57:36.742Z,31.27
2018-12-01T04:02:38.998Z,31.47
2018-12-01T04:07:41.076Z,31.73
2018-12-01T04:12:43.074Z,31.40
2018-12-01T04:17:45.989Z,31.30
2018-12-01T04:22:48.021Z,29.87
2018-12-01T04:27:50.053Z,29.70
2018-12-01T04:32:52.510Z,31.33
2018-12-01T04:37:55.509Z,30.37
2018-12-01T04:42:58.308Z,30.00
2018-12-01T04:48:00.349Z,30.07
2018-12-01T04:53:03.294Z,30.67
2018-12-01T04:58:05.462Z,31.23
2018-12-01T05:03:07.882Z,31.30
2018-12-01T05:08:09.934Z,31.97
2018-12-01T05:13:11.986Z,32.23
2018-12-01T05:18:14.003Z,31.00
2018-12-01T05:23:16.050Z,29.87
2018-12-01T05:28:18.058Z,31.67
2018-12-01T05:33:20.448Z,31.40
2018-12-01T05:38:22.513Z,31.93
2018-12-01T05:43:24.516Z,33.03
2018-12-01T05:48:26.745Z,35.20
2018-12-01T05:53:29.170Z,34.77
2018-12-01T05:58:31.186Z,34.30
2018-12-01T06:03:33.236Z,35.90
2018-12-01T06:08:36.114Z,33.70
2018-12-01T06:13:38.125Z,33.93
2018-12-01T06:18:40.125Z,33.07
2018-12-01T06:23:42.169Z,31.50
2018-12-01T06:28:44.394Z,31.30
2018-12-01T06:33:46.503Z,30.57
2018-12-01T06:38:48.565Z,31.67
2018-12-01T06:43:51.118Z,29.67
2018-12-01T06:48:53.145Z,32.10
2018-12-01T06:53:55.326Z,30.40
2018-12-01T06:58:57.645Z,30.57
2018-12-01T07:03:59.779Z,31.87
2018-12-01T07:09:02.004Z,31.03
2018-12-01T07:14:04.379Z,30.60
2018-12-01T07:19:16.226Z,33.70
2018-12-01T07:24:18.334Z,35.40
2018-12-01T07:29:20.378Z,30.60
2018-12-01T07:34:22.414Z,31.73
2018-12-01T07:39:24.890Z,30.43
2018-12-01T07:44:26.919Z,28.80
2018-12-01T07:49:29.744Z,30.37
2018-12-01T07:54:32.157Z,29.60
2018-12-01T07:59:34.486Z,28.10
2018-12-01T08:04:36.530Z,27.73
2018-12-01T08:09:38.760Z,29.10
2018-12-01T08:14:40.757Z,28.63
2018-12-01T08:19:42.768Z,28.03
2018-12-01T08:24:44.817Z,30.50
2018-12-01T08:29:46.825Z,25.43
2018-12-01T08:34:49.394Z,24.87
2018-12-01T08:39:52.532Z,26.90
2018-12-01T08:44:54.541Z,26.77
2018-12-01T08:49:56.562Z,25.77
2018-12-01T08:54:58.621Z,25.47
2018-12-01T09:00:00.629Z,25.10
2018-12-01T09:05:02.656Z,22.77
2018-12-01T09:10:06.727Z,23.03
2018-12-01T09:15:09.794Z,23.20
2018-12-01T09:20:12.618Z,21.10
2018-12-01T09:25:15.855Z,21.37
2018-12-01T09:30:20.043Z,20.10
2018-12-01T09:35:22.137Z,20.63
2018-12-01T09:40:24.254Z,18.33
2018-12-01T09:45:26.314Z,17.83
2018-12-01T09:50:29.060Z,16.03
2018-12-01T09:55:31.405Z,17.17
2018-12-01T10:00:33.454Z,15.03
2018-12-01T10:05:36.221Z,14.23
2018-12-01T10:10:38.800Z,14.10
2018-12-01T10:15:41.799Z,14.40
2018-12-01T10:20:45.414Z,13.60
2018-12-01T10:25:47.573Z,11.90
2018-12-01T10:30:50.747Z,13.13
2018-12-01T10:35:56.086Z,11.40
2018-12-01T10:40:59.785Z,10.07
2018-12-01T10:46:01.792Z,11.20
2018-12-01T10:51:03.860Z,10.87
2018-12-01T10:56:05.997Z,10.10
2018-12-01T11:01:13.757Z,10.77
2018-12-01T11:06:17.193Z,11.63
2018-12-01T11:11:19.283Z,9.60
2018-12-01T11:16:21.346Z,9.10
2018-12-01T11:21:23.404Z,9.30
2018-12-01T11:26:25.504Z,9.10
2018-12-01T11:31:28.058Z,9.23
2018-12-01T11:36:30.209Z,8.73
2018-12-01T11:41:32.274Z,8.53
2018-12-01T11:46:34.465Z,7.77
2018-12-01T11:51:36.535Z,6.73
2018-12-01T11:56:38.646Z,7.40
2018-12-01T12:01:40.731Z,7.30
2018-12-01T12:11:52.521Z,6.80
2018-12-01T12:16:54.612Z,7.63
2018-12-01T12:21:56.681Z,6.70
2018-12-01T12:26:59.139Z,7.63
2018-12-01T12:32:01.255Z,7.67
2018-12-01T12:37:03.504Z,6.80
2018-12-01T12:42:05.550Z,7.23
2018-12-01T12:47:07.593Z,6.67
2018-12-01T12:52:09.601Z,6.70
2018-12-01T12:57:11.638Z,6.03
2018-12-01T13:02:13.657Z,6.37
2018-12-01T13:07:15.661Z,6.20
2018-12-01T13:12:17.710Z,6.80
2018-12-01T13:17:19.944Z,6.70
2018-12-01T13:22:21.963Z,7.57
2018-12-01T13:27:24.201Z,7.77
2018-12-01T13:32:26.554Z,6.93
2018-12-01T13:37:28.682Z,7.87
2018-12-01T13:42:31.058Z,7.37
2018-12-01T13:47:33.074Z,8.13
2018-12-01T13:52:35.133Z,6.10
2018-12-01T13:57:37.506Z,10.27
2018-12-01T14:02:39.546Z,6.33
2018-12-01T14:07:41.608Z,6.10
2018-12-01T14:12:44.901Z,6.93
2018-12-01T14:17:47.802Z,6.40
2018-12-01T14:22:50.150Z,6.30
2018-12-01T14:27:56.678Z,6.03
2018-12-01T14:32:58.793Z,6.00
2018-12-01T14:38:08.303Z,5.83
2018-12-01T14:43:10.523Z,8.03
2018-12-01T14:48:12.626Z,6.63
2018-12-01T14:53:15.569Z,5.70
2018-12-01T14:58:17.654Z,4.67
2018-12-01T15:03:19.755Z,5.50
2018-12-01T15:08:21.774Z,5.77
2018-12-01T15:13:23.864Z,5.53
2018-12-01T15:18:25.926Z,5.60
2018-12-01T15:29:02.561Z,5.47
2018-12-01T15:34:04.970Z,5.83
2018-12-01T15:39:09.624Z,6.63
2018-12-01T15:44:11.701Z,6.40
2018-12-01T15:49:13.764Z,5.93
2018-12-01T15:54:15.877Z,5.63
2018-12-01T15:59:17.955Z,5.67
2018-12-01T16:04:20.109Z,6.67
2018-12-01T16:09:22.189Z,6.50
2018-12-01T16:14:24.462Z,6.80
2018-12-01T16:19:26.495Z,8.47
2018-12-01T16:24:28.526Z,19.33
2018-12-01T16:29:30.905Z,9.00
2018-12-01T16:34:33.049Z,7.33
2018-12-01T16:39:35.470Z,7.27
2018-12-01T16:44:37.522Z,6.80
2018-12-01T16:49:39.545Z,8.30
2018-12-01T16:54:41.593Z,6.83
2018-12-01T16:59:43.646Z,7.03
2018-12-01T17:04:45.666Z,8.80
2018-12-01T17:09:47.701Z,13.00
2018-12-01T17:14:49.777Z,7.67
2018-12-01T17:19:51.814Z,8.63
2018-12-01T17:24:53.842Z,10.17
2018-12-01T17:29:55.857Z,9.13
2018-12-01T17:34:58.295Z,14.03
2018-12-01T17:40:00.370Z,9.33
2018-12-01T17:45:02.423Z,22.97
2018-12-01T17:50:09.160Z,17.77
2018-12-01T17:55:12.613Z,12.20
2018-12-01T18:00:16.237Z,12.03
2018-12-01T18:05:22.526Z,15.30
2018-12-01T18:10:24.526Z,12.53
2018-12-01T18:15:26.597Z,12.40
2018-12-01T18:20:28.590Z,12.13
2018-12-01T18:25:32.985Z,14.17
2018-12-01T18:30:36.333Z,16.67
2018-12-01T18:35:38.480Z,15.37
2018-12-01T18:40:40.494Z,13.83
2018-12-01T18:45:44.394Z,15.03
2018-12-01T18:50:46.653Z,15.20
2018-12-01T18:55:55.113Z,14.83
2018-12-01T19:00:57.343Z,14.50
2018-12-01T19:05:59.562Z,13.63
2018-12-01T19:11:01.626Z,21.73
2018-12-01T19:16:03.681Z,16.47
2018-12-01T19:21:05.758Z,18.50
2018-12-01T19:26:08.179Z,16.63
2018-12-01T19:31:10.401Z,15.23
2018-12-01T19:36:12.453Z,15.77
2018-12-01T19:41:14.547Z,15.17
2018-12-01T19:46:16.570Z,15.27
2018-12-01T19:51:18.573Z,14.17
2018-12-01T19:56:20.582Z,15.33
2018-12-01T20:01:22.586Z,13.67
2018-12-01T20:06:24.707Z,15.30
2018-12-01T20:11:26.753Z,15.33
2018-12-01T20:16:31.333Z,14.90
2018-12-01T20:21:33.332Z,17.10
2018-12-01T20:26:36.005Z,15.43
2018-12-01T20:31:38.527Z,16.03
2018-12-01T20:36:46.844Z,16.77
2018-12-01T20:41:48.878Z,16.93
2018-12-01T20:46:50.928Z,18.40
2018-12-01T20:51:53.625Z,19.27
2018-12-01T20:56:59.697Z,20.90
2018-12-01T21:02:01.736Z,19.23
2018-12-01T21:07:03.813Z,20.63
2018-12-01T21:12:07.246Z,19.60
2018-12-01T21:17:09.285Z,19.67
2018-12-01T21:22:11.321Z,19.77
2018-12-01T21:27:13.699Z,19.70
2018-12-01T21:32:15.735Z,20.80
2018-12-01T21:37:17.818Z,18.53
2018-12-01T21:42:19.871Z,17.97
2018-12-01T21:47:21.928Z,19.00
2018-12-01T21:52:23.937Z,18.40
2018-12-01T21:57:25.971Z,18.33
2018-12-01T22:02:28.005Z,18.03
2018-12-01T22:07:30.191Z,18.37
2018-12-01T22:12:32.222Z,17.80
2018-12-01T22:17:34.254Z,18.23
2018-12-01T22:22:36.254Z,17.93
2018-12-01T22:27:38.491Z,16.23
2018-12-01T22:32:40.566Z,17.43
2018-12-01T22:37:42.710Z,17.90
2018-12-01T22:42:44.790Z,16.37
2018-12-01T22:47:46.829Z,17.60
2018-12-01T22:52:49.476Z,17.80
2018-12-01T22:57:54.192Z,16.67
2018-12-01T23:02:56.706Z,17.13
2018-12-01T23:07:58.797Z,17.27
2018-12-01T23:13:00.866Z,16.47
2018-12-01T23:18:04.181Z,17.47
2018-12-01T23:23:06.395Z,17.07
2018-12-01T23:28:08.448Z,16.90
2018-12-01T23:33:12.682Z,17.90
2018-12-01T23:38:15.437Z,16.37
2018-12-01T23:43:17.750Z,13.47
2018-12-01T23:48:19.821Z,16.23
2018-12-01T23:53:22.766Z,15.40
2018-12-01T23:58:24.813Z,15.90
